Time;durP1;ratioP1;P1;durP2;ratioP2;P2;SDS_P1;SDS_P2;PMS_P1;PMS_P2;Temp;Humidity;BMP_temperature;BMP_pressure;BME280_temperature;BME280_humidity;BME280_pressure;Samples;Min_cycle;Max_cycle;Signal;HPM_P1;HPM_P2
2023/10/26 00:00:28;;;;;;;21.25;11.18;;;;;;;9.30;100.00;99544.97;5049454;28;20021;-69
2023/10/26 00:02:53;;;;;;;19.77;9.48;;;;;;;9.19;100.00;99538.50;5049534;28;20503;-70
2023/10/26 00:05:19;;;;;;;19.52;8.73;;;;;;;9.26;100.00;99550.97;5031671;28;20036;-69
2023/10/26 00:07:44;;;;;;;19.63;8.98;;;;;;;9.23;100.00;99552.22;5049521;28;20025;-69
2023/10/26 00:10:10;;;;;;;21.80;10.52;;;;;;;9.23;100.00;99554.88;5049457;28;20112;-69
2023/10/26 00:12:35;;;;;;;23.45;9.82;;;;;;;9.15;100.00;99550.63;5049457;28;20499;-70
2023/10/26 00:15:02;;;;;;;20.88;9.90;;;;;;;9.23;100.00;99557.53;5049312;28;20118;-69
2023/10/26 00:17:28;;;;;;;23.92;11.23;;;;;;;9.15;100.00;99542.66;5049155;28;20045;-69
2023/10/26 00:19:53;;;;;;;21.88;10.55;;;;;;;9.24;100.00;99566.31;5049234;28;20055;-69
2023/10/26 00:22:19;;;;;;;21.65;9.23;;;;;;;9.23;100.00;99570.81;5049240;28;20029;-69
2023/10/26 00:24:45;;;;;;;18.35;9.05;;;;;;;9.21;100.00;99576.34;5049145;28;20044;-70
2023/10/26 00:27:10;;;;;;;20.38;10.68;;;;;;;9.21;100.00;99579.00;5049058;28;20025;-70
2023/10/26 00:29:36;;;;;;;20.63;10.75;;;;;;;9.19;100.00;99585.59;5049010;28;20075;-70
2023/10/26 00:32:01;;;;;;;22.13;11.13;;;;;;;9.20;100.00;99587.22;5049002;28;20075;-70
2023/10/26 00:34:26;;;;;;;22.42;10.68;;;;;;;9.14;100.00;99583.59;5048960;28;20052;-70
2023/10/26 00:36:52;;;;;;;21.67;10.77;;;;;;;9.17;100.00;99593.81;5048740;28;20036;-69
2023/10/26 00:39:17;;;;;;;22.77;10.80;;;;;;;9.14;100.00;99585.44;5048825;28;20017;-69
2023/10/26 00:41:42;;;;;;;20.83;9.85;;;;;;;9.19;100.00;99596.22;5048864;28;20041;-69
2023/10/26 00:44:08;;;;;;;21.67;10.77;;;;;;;9.17;100.00;99593.00;5048859;28;20032;-69
2023/10/26 00:46:35;;;;;;;21.73;10.02;;;;;;;9.17;100.00;99593.00;5048597;28;20982;-70
2023/10/26 00:49:01;;;;;;;21.20;10.27;;;;;;;9.16;100.00;99599.34;5048691;28;20044;-69
2023/10/26 00:51:26;;;;;;;21.00;10.10;;;;;;;9.15;100.00;99598.53;5048800;28;20103;-70
2023/10/26 00:53:52;;;;;;;19.63;9.93;;;;;;;9.13;100.00;99599.78;5048637;28;20128;-69
2023/10/26 00:56:21;;;;;;;20.50;9.60;;;;;;;9.11;100.00;99599.97;5048682;28;20112;-70
2023/10/26 00:58:47;;;;;;;22.75;9.43;;;;;;;9.08;100.00;99591.63;5048234;28;20036;-70
2023/10/26 01:01:14;;;;;;;21.17;9.45;;;;;;;9.07;100.00;99596.13;5048476;28;20055;-70
2023/10/26 01:03:40;;;;;;;20.52;9.93;;;;;;;9.05;100.00;99608.84;5048564;28;20040;-69
2023/10/26 01:06:08;;;;;;;21.23;10.48;;;;;;;9.02;100.00;99598.63;5048623;28;20037;-69
2023/10/26 01:08:34;;;;;;;23.08;10.45;;;;;;;9.02;100.00;99611.94;5048744;28;20037;-70
2023/10/26 01:11:01;;;;;;;20.48;10.32;;;;;;;9.00;100.00;99611.31;5048531;28;20040;-70
2023/10/26 01:13:26;;;;;;;19.02;9.30;;;;;;;8.97;100.00;99614.44;5048479;28;20678;-69
2023/10/26 01:15:52;;;;;;;19.73;9.55;;;;;;;8.94;100.00;99620.19;5062216;28;20060;-70
2023/10/26 01:18:17;;;;;;;21.20;11.05;;;;;;;8.94;100.00;99622.84;5067354;28;20036;-70
2023/10/26 01:20:43;;;;;;;22.85;10.18;;;;;;;8.89;100.00;99620.81;5067524;28;20029;-69
2023/10/26 01:23:09;;;;;;;20.50;10.95;;;;;;;8.93;100.00;99634.50;5067402;28;20119;-70
2023/10/26 01:25:34;;;;;;;20.85;10.07;;;;;;;8.90;100.00;99627.75;5049486;28;20438;-69
2023/10/26 01:28:00;;;;;;;20.00;9.75;;;;;;;8.88;100.00;99626.34;5067478;28;20098;-69
2023/10/26 01:30:26;;;;;;;20.35;10.38;;;;;;;8.84;100.00;99631.28;5067409;28;20028;-70
2023/10/26 01:32:51;;;;;;;20.05;9.13;;;;;;;8.86;100.00;99628.44;5067629;28;20037;-70
2023/10/26 01:35:17;;;;;;;20.58;9.35;;;;;;;8.84;100.00;99633.94;5067540;28;20548;-69
2023/10/26 01:37:42;;;;;;;19.85;9.85;;;;;;;8.80;100.00;99627.41;5047911;28;20033;-69
2023/10/26 01:40:08;;;;;;;20.80;10.18;;;;;;;8.74;100.00;99626.44;5048162;28;20044;-69
2023/10/26 01:42:33;;;;;;;21.52;8.77;;;;;;;8.74;100.00;99629.09;5055883;28;20055;-69
2023/10/26 01:44:59;;;;;;;22.95;10.52;;;;;;;8.72;100.00;99630.34;5067188;28;20786;-70
2023/10/26 01:47:24;;;;;;;19.25;9.50;;;;;;;8.70;100.00;99624.44;5061879;28;20102;-70
2023/10/26 01:49:50;;;;;;;19.83;9.27;;;;;;;8.67;100.00;99615.06;5048088;28;21007;-69
2023/10/26 01:52:15;;;;;;;20.25;10.00;;;;;;;8.63;100.00;99611.19;5048112;28;20048;-69
2023/10/26 01:54:41;;;;;;;20.95;8.68;;;;;;;8.61;100.00;99607.13;5048175;28;20032;-70
2023/10/26 01:57:06;;;;;;;22.55;9.63;;;;;;;8.62;100.00;99614.03;5047980;28;20035;-70
2023/10/26 01:59:31;;;;;;;21.25;9.55;;;;;;;8.60;100.00;99618.78;5048004;28;20040;-69
2023/10/26 02:01:57;;;;;;;21.13;10.93;;;;;;;8.51;100.00;99599.59;5029980;28;20143;-70
2023/10/26 02:04:22;;;;;;;22.20;9.40;;;;;;;8.56;100.00;99621.84;5048009;28;20040;-70
2023/10/26 02:06:47;;;;;;;22.83;10.77;;;;;;;8.55;100.00;99622.06;5048078;28;20140;-70
2023/10/26 02:09:13;;;;;;;22.35;10.13;;;;;;;8.54;100.00;99613.28;5048083;28;20100;-70
2023/10/26 02:11:38;;;;;;;21.55;9.57;;;;;;;8.53;100.00;99618.81;5051036;28;20025;-70
2023/10/26 02:14:03;;;;;;;22.08;9.30;;;;;;;8.52;100.00;99611.88;5033842;28;20487;-70
2023/10/26 02:16:29;;;;;;;22.45;10.93;;;;;;;8.48;100.00;99614.13;5051464;28;20401;-69
2023/10/26 02:18:54;;;;;;;20.95;10.20;;;;;;;8.45;100.00;99609.25;5051510;28;20124;-70
2023/10/26 02:21:19;;;;;;;22.35;10.38;;;;;;;8.45;100.00;99613.75;5051558;28;20064;-70
2023/10/26 02:23:45;;;;;;;21.77;9.52;;;;;;;8.43;100.00;99610.50;5051599;28;20439;-69
2023/10/26 02:26:11;;;;;;;21.25;8.82;;;;;;;8.42;100.00;99614.19;5051497;28;20071;-70
2023/10/26 02:28:36;;;;;;;21.40;11.15;;;;;;;8.36;100.00;99607.84;5051328;28;20074;-70
2023/10/26 02:31:01;;;;;;;21.67;10.35;;;;;;;8.33;100.00;99606.44;5051259;28;20037;-70
2023/10/26 02:33:27;;;;;;;21.52;10.80;;;;;;;8.33;100.00;99613.56;5051260;28;20108;-70
2023/10/26 02:35:52;;;;;;;20.88;10.55;;;;;;;8.32;100.00;99618.06;5051175;28;20037;-70
2023/10/26 02:38:18;;;;;;;20.45;8.98;;;;;;;8.29;100.00;99623.00;5033273;28;20033;-70
2023/10/26 02:40:43;;;;;;;20.70;9.68;;;;;;;8.19;100.00;99607.50;5051003;28;20060;-70
2023/10/26 02:43:09;;;;;;;19.35;8.27;;;;;;;8.15;100.00;99618.75;5051142;28;20031;-69
2023/10/26 02:45:35;;;;;;;20.77;10.27;;;;;;;8.10;100.00;99617.56;5050829;28;20040;-70
2023/10/26 02:48:02;;;;;;;19.60;9.30;;;;;;;8.11;100.00;99623.69;5051045;28;20060;-70
2023/10/26 02:50:28;;;;;;;20.85;9.60;;;;;;;8.11;100.00;99631.66;5051021;28;20515;-70
2023/10/26 02:52:53;;;;;;;20.70;8.82;;;;;;;8.10;100.00;99624.72;5051109;28;20036;-69
2023/10/26 02:55:19;;;;;;;19.27;9.48;;;;;;;8.10;100.00;99627.38;5050821;28;20369;-69
2023/10/26 02:57:44;;;;;;;18.70;9.10;;;;;;;8.10;100.00;99614.09;5050733;28;20475;-70
2023/10/26 03:00:12;;;;;;;20.70;10.20;;;;;;;8.12;100.00;99617.34;5050591;28;20047;-69
2023/10/26 03:02:37;;;;;;;20.13;9.52;;;;;;;8.14;100.00;99607.31;5050852;28;20029;-70
2023/10/26 03:05:02;;;;;;;20.45;8.88;;;;;;;8.16;100.00;99615.09;5050735;28;20112;-70
2023/10/26 03:07:28;;;;;;;20.00;9.75;;;;;;;8.15;100.00;99618.75;5050624;28;20486;-69
2023/10/26 03:09:54;;;;;;;22.65;9.15;;;;;;;8.15;100.00;99624.06;5032909;28;20581;-70
2023/10/26 03:12:20;;;;;;;21.05;9.38;;;;;;;8.15;100.00;99624.06;5050541;28;20095;-69
2023/10/26 03:14:45;;;;;;;23.27;9.95;;;;;;;8.15;100.00;99626.72;5032580;28;20036;-69
2023/10/26 03:17:15;;;;;;;23.73;12.48;;;;;;;8.10;100.00;99611.44;5050301;28;20496;-69
2023/10/26 03:19:42;;;;;;;21.15;9.65;;;;;;;8.09;100.00;99607.16;5033095;28;20124;-69
2023/10/26 03:22:07;;;;;;;26.90;11.23;;;;;;;8.09;100.00;99596.53;5050368;28;20028;-69
2023/10/26 03:24:32;;;;;;;23.77;10.95;;;;;;;8.08;100.00;99589.59;5050459;28;20079;-69
2023/10/26 03:26:58;;;;;;;23.55;11.98;;;;;;;8.07;100.00;99593.28;5032340;28;20060;-69
2023/10/26 03:29:24;;;;;;;21.52;10.30;;;;;;;8.04;100.00;99599.00;5050355;28;20399;-69
2023/10/26 03:31:49;;;;;;;21.38;9.73;;;;;;;7.98;100.00;99589.22;5050128;28;20029;-69
2023/10/26 03:34:14;;;;;;;22.70;9.77;;;;;;;8.00;100.00;99601.28;5032190;28;20057;-69
2023/10/26 03:36:40;;;;;;;20.52;9.48;;;;;;;7.98;100.00;99608.63;5050001;28;20036;-69
2023/10/26 03:39:05;;;;;;;18.42;8.77;;;;;;;7.97;100.00;99614.16;5049866;28;20071;-69
2023/10/26 03:41:30;;;;;;;22.27;11.15;;;;;;;7.97;100.00;99611.50;5050017;28;20040;-69
2023/10/26 03:43:56;;;;;;;20.80;9.93;;;;;;;7.95;100.00;99616.19;5049973;28;20033;-70
2023/10/26 03:46:22;;;;;;;23.30;10.13;;;;;;;7.91;100.00;99610.47;5049963;28;20037;-70
2023/10/26 03:48:47;;;;;;;21.42;10.23;;;;;;;7.93;100.00;99607.63;5049992;28;21022;-69
2023/10/26 03:51:13;;;;;;;21.92;9.10;;;;;;;7.90;100.00;99603.56;5049959;28;20404;-70
2023/10/26 03:53:38;;;;;;;21.13;8.95;;;;;;;7.90;100.00;99607.00;5049718;28;20627;-70
2023/10/26 03:56:04;;;;;;;24.52;11.10;;;;;;;7.89;100.00;99612.56;5049894;28;20368;-69
2023/10/26 03:58:29;;;;;;;21.45;8.55;;;;;;;7.86;100.00;99605.81;5049742;28;20453;-69
2023/10/26 04:00:56;;;;;;;22.45;9.45;;;;;;;7.83;100.00;99595.63;5049343;28;20024;-70
2023/10/26 04:03:22;;;;;;;20.73;9.88;;;;;;;7.82;100.00;99601.94;5049493;28;20053;-69
2023/10/26 04:05:47;;;;;;;21.05;9.23;;;;;;;7.76;100.00;99591.38;5049535;28;20136;-70
2023/10/26 04:08:12;;;;;;;24.13;10.73;;;;;;;7.79;100.00;99585.63;5031667;28;20048;-69
2023/10/26 04:10:38;;;;;;;21.00;9.80;;;;;;;7.80;100.00;99588.06;5049353;28;20025;-70
2023/10/26 04:13:03;;;;;;;20.05;10.20;;;;;;;7.76;100.00;99580.75;5049429;28;20033;-70
2023/10/26 04:15:28;;;;;;;18.92;8.85;;;;;;;7.74;100.00;99583.59;5031341;28;20037;-69
2023/10/26 04:17:54;;;;;;;21.75;10.73;;;;;;;7.75;100.00;99590.53;5049056;28;20110;-69
2023/10/26 04:20:22;;;;;;;22.48;10.68;;;;;;;7.73;100.00;99589.09;5049270;28;20029;-69
2023/10/26 04:22:48;;;;;;;27.70;10.88;;;;;;;7.66;100.00;99587.28;5049215;28;20495;-70
2023/10/26 04:25:13;;;;;;;20.25;7.68;;;;;;;7.63;100.00;99574.44;5056502;28;20085;-70
2023/10/26 04:27:39;;;;;;;25.85;9.15;;;;;;;7.63;100.00;99579.75;5068089;28;20085;-70
2023/10/26 04:30:05;;;;;;;25.58;10.23;;;;;;;7.62;100.00;99578.13;5068368;28;20024;-70
2023/10/26 04:32:31;;;;;;;24.05;11.52;;;;;;;7.60;100.00;99582.84;5030999;28;20037;-69
2023/10/26 04:34:57;;;;;;;30.30;11.13;;;;;;;7.64;100.00;99585.88;5030882;28;20085;-70
2023/10/26 04:37:22;;;;;;;24.23;10.43;;;;;;;7.59;100.00;99583.84;5049074;28;20404;-69
2023/10/26 04:39:47;;;;;;;29.23;11.52;;;;;;;7.55;100.00;99580.00;5048858;28;20048;-70
2023/10/26 04:42:13;;;;;;;31.67;11.98;;;;;;;7.52;100.00;99588.38;5048867;28;20067;-69
2023/10/26 04:44:39;;;;;;;25.35;9.43;;;;;;;7.46;100.00;99581.22;5048950;28;20098;-69
2023/10/26 04:47:05;;;;;;;29.60;11.55;;;;;;;7.39;100.00;99583.91;5031029;28;20048;-69
2023/10/26 04:49:33;;;;;;;20.77;8.45;;;;;;;7.42;100.00;99585.31;5048970;28;20029;-69
2023/10/26 04:51:59;;;;;;;25.58;11.73;;;;;;;7.37;100.00;99575.31;5048727;28;20025;-69
2023/10/26 04:54:24;;;;;;;18.58;8.30;;;;;;;7.36;100.00;99588.78;5031057;28;20044;-69
2023/10/26 04:56:49;;;;;;;20.92;8.93;;;;;;;7.35;100.00;99585.31;5048808;28;20468;-70
2023/10/26 04:59:15;;;;;;;23.35;9.98;;;;;;;7.32;100.00;99580.44;5048600;28;20036;-69
2023/10/26 05:01:40;;;;;;;20.10;7.18;;;;;;;7.25;100.00;99583.09;5048517;28;20074;-69
2023/10/26 05:04:06;;;;;;;19.98;7.70;;;;;;;7.21;100.00;99589.03;5048531;28;20484;-70
2023/10/26 05:06:32;;;;;;;23.02;7.72;;;;;;;7.20;100.00;99585.56;5048397;28;20036;-69
2023/10/26 05:08:58;;;;;;;17.48;7.88;;;;;;;7.19;100.00;99575.97;5048438;28;20032;-69
2023/10/26 05:11:23;;;;;;;22.42;8.65;;;;;;;7.20;100.00;99584.72;5030315;28;20048;-69
2023/10/26 05:13:52;;;;;;;19.65;7.45;;;;;;;7.17;100.00;99585.16;5048340;28;20139;-69
2023/10/26 05:16:17;;;;;;;18.35;7.50;;;;;;;7.12;100.00;99579.63;5048231;28;20056;-69
2023/10/26 05:18:43;;;;;;;17.90;8.80;;;;;;;7.10;100.00;99582.50;5048464;28;20813;-69
2023/10/26 05:21:08;;;;;;;18.20;7.65;;;;;;;7.09;100.00;99580.88;5030667;28;20033;-70
2023/10/26 05:23:33;;;;;;;16.98;7.15;;;;;;;7.03;100.00;99574.56;5067381;28;20364;-69
2023/10/26 05:25:59;;;;;;;18.60;6.78;;;;;;;7.10;100.00;99582.50;5067642;28;20387;-69
2023/10/26 05:28:24;;;;;;;22.77;9.05;;;;;;;7.10;100.00;99577.22;5067490;28;20044;-69
2023/10/26 05:30:50;;;;;;;25.63;8.63;;;;;;;7.15;100.00;99584.53;5049340;28;20048;-69
2023/10/26 05:33:15;;;;;;;21.48;7.70;;;;;;;7.16;100.00;99575.56;5047997;28;20111;-69
2023/10/26 05:35:40;;;;;;;24.85;10.30;;;;;;;7.20;100.00;99579.44;5048171;28;20033;-69
2023/10/26 05:38:06;;;;;;;22.70;7.72;;;;;;;7.21;100.00;99576.59;5048011;28;20068;-70
2023/10/26 05:40:32;;;;;;;22.10;8.05;;;;;;;7.25;100.00;99571.66;5047971;28;20068;-69
2023/10/26 05:42:57;;;;;;;38.78;11.77;;;;;;;7.28;100.00;99575.75;5048239;28;20091;-69
2023/10/26 05:45:23;;;;;;;22.90;9.50;;;;;;;7.21;100.00;99565.97;5049493;28;20119;-69
2023/10/26 05:47:52;;;;;;;22.88;9.65;;;;;;;7.28;100.00;99570.44;5052216;28;20037;-69
2023/10/26 05:50:19;;;;;;;28.33;9.15;;;;;;;7.31;100.00;99581.47;5052044;28;20388;-69
2023/10/26 05:52:44;;;;;;;38.35;11.38;;;;;;;7.29;100.00;99575.56;5051827;28;20036;-70
2023/10/26 05:55:10;;;;;;;28.33;9.48;;;;;;;7.28;100.00;99568.59;5051845;28;20033;-69
2023/10/26 05:57:35;;;;;;;26.35;9.18;;;;;;;7.30;100.00;99579.81;5051783;28;20029;-70
2023/10/26 06:00:00;;;;;;;17.40;8.40;;;;;;;7.31;100.00;99581.47;5051757;28;20029;-69
2023/10/26 06:02:26;;;;;;;19.20;9.15;;;;;;;7.31;100.00;99583.28;5051658;28;20029;-69
2023/10/26 06:04:51;;;;;;;18.30;7.47;;;;;;;7.31;100.00;99573.50;5070620;28;20032;-70
2023/10/26 06:07:16;;;;;;;19.00;8.88;;;;;;;7.35;100.00;99577.38;5070836;28;20051;-69
2023/10/26 06:09:42;;;;;;;19.45;7.13;;;;;;;7.39;100.00;99567.19;5070448;28;20464;-69
2023/10/26 06:12:07;;;;;;;17.42;6.95;;;;;;;7.41;100.00;99570.41;5070413;28;20046;-69
2023/10/26 06:14:33;;;;;;;17.70;6.55;;;;;;;7.38;100.00;99555.72;5052472;28;20029;-69
2023/10/26 06:16:58;;;;;;;16.90;7.18;;;;;;;7.42;100.00;99569.41;5070525;28;20105;-69
2023/10/26 06:19:23;;;;;;;16.65;6.60;;;;;;;7.40;100.00;99555.53;5070619;28;20075;-70
2023/10/26 06:21:49;;;;;;;20.08;7.43;;;;;;;7.36;100.00;99555.16;5070088;28;20447;-69
2023/10/26 06:24:14;;;;;;;21.58;8.50;;;;;;;7.31;100.00;99551.47;5069317;28;20028;-70
2023/10/26 06:26:40;;;;;;;17.15;7.72;;;;;;;7.31;100.00;99557.59;5069477;28;20086;-70
2023/10/26 06:29:05;;;;;;;17.38;8.02;;;;;;;7.35;100.00;99565.94;5069480;28;20471;-70
2023/10/26 06:31:30;;;;;;;21.02;8.05;;;;;;;7.32;100.00;99556.56;5069644;28;20035;-69
2023/10/26 06:33:56;;;;;;;14.88;7.03;;;;;;;7.38;100.00;99560.22;5069556;28;20059;-70
2023/10/26 06:36:21;;;;;;;15.25;7.22;;;;;;;7.35;100.00;99553.50;5069945;28;20628;-69
2023/10/26 06:38:47;;;;;;;20.38;8.15;;;;;;;7.41;100.00;99565.09;5070057;28;20705;-70
2023/10/26 06:41:12;;;;;;;20.58;8.05;;;;;;;7.38;100.00;99568.19;5069690;28;20101;-69
2023/10/26 06:43:38;;;;;;;25.52;8.75;;;;;;;7.39;100.00;99567.19;5069864;28;20517;-70
2023/10/26 06:46:03;;;;;;;19.08;8.98;;;;;;;7.42;100.00;99575.53;5069836;28;20041;-69
2023/10/26 06:48:29;;;;;;;21.05;7.75;;;;;;;7.44;100.00;99572.66;5069687;28;20036;-69
2023/10/26 06:51:00;;;;;;;19.00;7.25;;;;;;;7.50;100.00;99565.72;5051834;28;20028;-69
2023/10/26 06:53:25;;;;;;;20.52;8.35;;;;;;;7.49;100.00;99561.41;5068801;28;20529;-69
2023/10/26 06:55:51;;;;;;;18.63;7.97;;;;;;;7.55;100.00;99569.38;5034160;28;20091;-69
2023/10/26 06:58:17;;;;;;;17.83;7.95;;;;;;;7.58;100.00;99562.84;5050633;28;20079;-69
2023/10/26 07:00:42;;;;;;;15.20;7.07;;;;;;;7.53;100.00;99552.03;5050380;28;20033;-70
2023/10/26 07:03:07;;;;;;;22.77;9.63;;;;;;;7.65;100.00;99567.09;5050275;28;20029;-69
2023/10/26 07:05:33;;;;;;;18.98;8.45;;;;;;;7.69;100.00;99564.84;5015666;28;20048;-69
2023/10/26 07:07:59;;;;;;;18.55;7.63;;;;;;;7.65;100.00;99556.50;5050532;28;20045;-69
2023/10/26 07:10:28;;;;;;;16.95;8.45;;;;;;;7.73;100.00;99565.22;5050524;28;20110;-69
2023/10/26 07:12:53;;;;;;;18.70;9.05;;;;;;;7.77;100.00;99564.59;5050069;28;20033;-69
2023/10/26 07:15:18;;;;;;;19.05;8.55;;;;;;;7.75;100.00;99553.38;5050348;28;20946;-69
2023/10/26 07:17:44;;;;;;;18.77;8.60;;;;;;;7.80;100.00;99555.41;5050045;28;20061;-69
2023/10/26 07:20:12;;;;;;;25.92;9.23;;;;;;;7.81;100.00;99555.19;5032357;28;20082;-69
2023/10/26 07:22:38;;;;;;;22.25;9.30;;;;;;;7.85;100.00;99559.03;5032129;28;20041;-70
2023/10/26 07:25:05;;;;;;;18.65;8.57;;;;;;;7.86;100.00;99550.06;5050217;28;20029;-69
2023/10/26 07:27:30;;;;;;;18.40;8.02;;;;;;;7.92;100.00;99560.88;5032137;28;20487;-70
2023/10/26 07:29:56;;;;;;;20.25;9.45;;;;;;;7.99;100.00;99564.28;5061251;28;20051;-69
2023/10/26 07:32:22;;;;;;;23.80;10.07;;;;;;;8.01;100.00;99567.56;5068876;28;20055;-70
2023/10/26 07:34:47;;;;;;;26.05;10.45;;;;;;;8.02;100.00;99559.41;5060143;28;20090;-69
2023/10/26 07:37:13;;;;;;;23.52;9.25;;;;;;;8.01;100.00;99557.75;5052277;28;20039;-69
2023/10/26 07:39:38;;;;;;;22.33;9.70;;;;;;;8.04;100.00;99549.38;5049851;28;20075;-69
2023/10/26 07:42:04;;;;;;;25.45;9.75;;;;;;;8.07;100.00;99548.97;5031979;28;20031;-69
2023/10/26 07:44:33;;;;;;;19.83;8.30;;;;;;;8.11;100.00;99554.66;5049790;28;20112;-69
2023/10/26 07:46:59;;;;;;;22.38;8.70;;;;;;;8.13;100.00;99536.66;5057547;28;20040;-69
2023/10/26 07:49:24;;;;;;;21.55;8.82;;;;;;;8.17;100.00;99545.00;5068748;28;20043;-69
2023/10/26 07:51:50;;;;;;;20.48;8.48;;;;;;;8.22;100.00;99556.63;5050777;28;20132;-69
2023/10/26 07:54:16;;;;;;;20.88;9.75;;;;;;;8.21;100.00;99549.69;5050374;28;20036;-69
2023/10/26 07:56:41;;;;;;;19.98;9.10;;;;;;;8.25;100.00;99550.91;5048077;28;20040;-70
2023/10/26 07:59:06;;;;;;;21.55;9.27;;;;;;;8.30;100.00;99553.72;5068578;28;20037;-70
2023/10/26 08:01:32;;;;;;;22.33;8.90;;;;;;;8.38;100.00;99559.81;5050629;28;20476;-71
2023/10/26 08:03:57;;;;;;;21.02;9.10;;;;;;;8.44;100.00;99569.63;5068342;28;20102;-70
2023/10/26 08:06:23;;;;;;;22.08;10.57;;;;;;;8.53;100.00;99573.63;5029602;28;20113;-71
2023/10/26 08:08:51;;;;;;;22.77;11.38;;;;;;;8.62;100.00;99574.19;5045990;28;20414;-70
2023/10/26 08:11:17;;;;;;;22.60;10.90;;;;;;;8.69;100.00;99577.63;5046856;28;20138;-71
2023/10/26 08:13:43;;;;;;;26.05;9.55;;;;;;;8.75;100.00;99572.25;5052048;28;20468;-71
2023/10/26 08:16:08;;;;;;;20.80;8.68;;;;;;;8.83;100.00;99588.94;5065516;28;20109;-72
2023/10/26 08:18:35;;;;;;;22.80;9.90;;;;;;;8.83;100.00;99579.16;5065684;28;20028;-71
2023/10/26 08:21:03;;;;;;;22.67;8.75;;;;;;;8.86;100.00;99588.53;5065729;28;20044;-70
2023/10/26 08:23:29;;;;;;;25.48;11.23;;;;;;;8.90;100.00;99581.75;5058173;28;20384;-70
2023/10/26 08:25:55;;;;;;;23.42;10.43;;;;;;;8.90;100.00;99585.22;5067587;28;20490;-70
2023/10/26 08:28:21;;;;;;;22.90;9.65;;;;;;;8.90;100.00;99595.03;5067744;28;20025;-69
2023/10/26 08:30:47;;;;;;;22.20;8.55;;;;;;;8.85;100.00;99593.03;5049368;28;20055;-71
2023/10/26 08:33:13;;;;;;;25.70;10.40;;;;;;;8.88;100.00;99605.06;5049403;28;20055;-70
2023/10/26 08:35:39;;;;;;;26.02;9.80;;;;;;;8.82;100.00;99605.94;5067300;28;20464;-70
2023/10/26 08:38:04;;;;;;;25.92;11.07;;;;;;;8.83;100.00;99612.88;5053764;28;20434;-71
2023/10/26 08:40:30;;;;;;;20.40;8.45;;;;;;;8.82;100.00;99608.59;5066957;28;20029;-71
2023/10/26 08:42:56;;;;;;;23.77;8.85;;;;;;;8.82;100.00;99605.94;5066744;28;20407;-71
2023/10/26 08:45:24;;;;;;;23.55;9.45;;;;;;;8.80;100.00;99603.50;5066652;28;20048;-71
2023/10/26 08:47:50;;;;;;;22.30;9.90;;;;;;;8.81;100.00;99601.66;5066900;28;20569;-70
2023/10/26 08:50:23;;;;;;;26.35;10.25;;;;;;;8.77;100.00;99606.59;5066890;28;20027;-71
2023/10/26 08:52:49;;;;;;;25.77;9.77;;;;;;;8.68;100.00;99597.25;5067055;28;20059;-70
2023/10/26 08:55:15;;;;;;;23.98;9.40;;;;;;;8.66;100.00;99589.50;5066909;28;20446;-71
2023/10/26 08:57:52;;;;;;;22.20;9.80;;;;;;;8.69;100.00;99591.72;5047242;28;20055;-71
2023/10/26 09:00:18;;;;;;;19.60;9.13;;;;;;;8.69;100.00;99588.25;5066783;28;20028;-71
2023/10/26 09:02:44;;;;;;;25.23;8.77;;;;;;;8.73;100.00;99592.13;5065559;28;20086;-71
2023/10/26 09:05:11;;;;;;;30.17;11.13;;;;;;;8.73;100.00;99594.78;5047432;28;20032;-71
2023/10/26 09:07:36;;;;;;;21.77;8.48;;;;;;;8.77;100.00;99603.94;5029415;28;20032;-71
2023/10/26 09:10:02;;;;;;;27.17;10.30;;;;;;;8.80;100.00;99587.53;5047360;28;20059;-72
2023/10/26 09:12:28;;;;;;;23.95;9.45;;;;;;;8.87;100.00;99590.16;5046643;28;20037;-72
2023/10/26 09:15:00;;;;;;;25.92;12.38;;;;;;;8.95;100.00;99593.34;5047223;28;20044;-71
2023/10/26 09:17:30;;;;;;;29.58;10.77;;;;;;;8.98;100.00;99594.78;5053773;28;20059;-71
2023/10/26 09:19:57;;;;;;;19.13;8.05;;;;;;;8.99;100.00;99583.94;5065822;28;20975;-70
2023/10/26 09:22:38;;;;;;;29.70;11.23;;;;;;;9.00;100.00;99582.88;5065812;28;20024;-71
2023/10/26 09:25:11;;;;;;;25.58;9.48;;;;;;;9.09;100.00;99580.78;5066163;28;20029;-70
2023/10/26 09:27:38;;;;;;;25.27;10.93;;;;;;;9.14;100.00;99570.31;5066351;28;20433;-71
2023/10/26 09:30:05;;;;;;;23.02;9.80;;;;;;;9.25;100.00;99570.59;5048425;28;20493;-70
2023/10/26 09:32:33;;;;;;;21.10;9.35;;;;;;;9.33;100.00;99565.00;5066821;28;20032;-70
2023/10/26 09:34:59;;;;;;;26.05;10.82;;;;;;;9.44;100.00;99574.91;5054719;28;20029;-70
2023/10/26 09:37:24;;;;;;;25.90;9.45;;;;;;;9.47;100.00;99571.81;5035176;28;20075;-70
2023/10/26 09:39:52;;;;;;;23.55;8.93;;;;;;;9.53;100.00;99575.44;5062209;28;20479;-67
2023/10/26 09:42:19;;;;;;;23.23;9.65;;;;;;;9.61;100.00;99583.13;5048477;28;20028;-70
2023/10/26 09:44:45;;;;;;;25.08;10.20;;;;;;;9.59;100.00;99578.03;5046347;28;20132;-70
2023/10/26 09:47:11;;;;;;;20.90;9.63;;;;;;;9.61;100.00;99580.47;5046491;28;20438;-70
2023/10/26 09:49:36;;;;;;;22.98;9.55;;;;;;;9.57;100.00;99569.44;5039117;28;20048;-70
2023/10/26 09:52:02;;;;;;;22.08;9.07;;;;;;;9.58;100.00;99575.59;5042122;28;20484;-70
2023/10/26 09:54:33;;;;;;;19.38;7.78;;;;;;;9.52;100.00;99568.50;5047255;28;20112;-70
2023/10/26 09:57:21;;;;;;;27.63;11.27;;;;;;;9.53;100.00;99567.44;5047298;28;20025;-70
2023/10/26 09:59:52;;;;;;;23.23;9.52;;;;;;;9.50;100.00;99570.56;5029107;28;20024;-70
2023/10/26 10:02:19;;;;;;;23.25;9.48;;;;;;;9.42;100.00;99569.81;5046772;28;20043;-70
2023/10/26 10:04:45;;;;;;;22.05;8.65;;;;;;;9.41;100.00;99572.72;5046909;28;20025;-70
2023/10/26 10:07:18;;;;;;;19.98;8.52;;;;;;;9.44;100.00;99581.06;5046879;28;20039;-70
2023/10/26 10:10:05;;;;;;;20.13;8.15;;;;;;;9.51;100.00;99569.50;5047002;28;20029;-70
2023/10/26 10:12:32;;;;;;;21.35;7.57;;;;;;;9.44;100.00;99574.91;5048017;28;20029;-70
2023/10/26 10:14:58;;;;;;;20.17;9.13;;;;;;;9.48;100.00;99580.59;5047378;28;20504;-70
2023/10/26 10:17:44;;;;;;;21.10;9.00;;;;;;;9.42;100.00;99569.00;5046789;28;20134;-69
2023/10/26 10:20:16;;;;;;;22.40;9.55;;;;;;;9.56;100.00;99580.31;5029041;28;20041;-69
2023/10/26 10:22:45;;;;;;;21.27;9.57;;;;;;;9.59;100.00;99572.72;5046714;28;20472;-69
2023/10/26 10:25:11;;;;;;;21.38;9.15;;;;;;;9.59;100.00;99561.25;5046905;28;20040;-68
2023/10/26 10:28:00;;;;;;;23.92;9.15;;;;;;;9.64;100.00;99566.69;5047067;28;20388;-70
2023/10/26 10:30:31;;;;;;;22.98;9.70;;;;;;;9.70;100.00;99562.38;5046446;28;20798;-69
2023/10/26 10:32:57;;;;;;;23.45;10.88;;;;;;;9.82;100.00;99565.88;5067256;28;20109;-70
2023/10/26 10:35:25;;;;;;;22.92;11.82;;;;;;;9.85;100.00;99565.44;5069193;28;20071;-69
2023/10/26 10:38:18;;;;;;;25.00;10.52;;;;;;;9.82;100.00;99548.09;5055482;28;20025;-70
2023/10/26 10:40:59;;;;;;;23.67;11.18;;;;;;;9.78;100.00;99532.78;5031678;28;20238;-70
2023/10/26 10:43:43;;;;;;;25.40;10.32;;;;;;;9.74;100.00;99529.72;5048833;28;20602;-68
2023/10/26 10:46:15;;;;;;;25.23;10.02;;;;;;;9.71;100.00;99527.50;5048575;28;20823;-70
2023/10/26 10:49:03;;;;;;;24.42;9.90;;;;;;;9.77;100.00;99537.28;5048098;28;20029;-67
2023/10/26 10:51:35;;;;;;;25.88;12.57;;;;;;;9.78;100.00;99536.25;5047600;28;20125;-68
2023/10/26 10:54:04;;;;;;;24.50;9.75;;;;;;;9.77;100.00;99531.97;5048327;28;20488;-68
2023/10/26 10:56:48;;;;;;;20.80;9.80;;;;;;;9.88;100.00;99533.06;5047885;28;20040;-70
2023/10/26 10:59:26;;;;;;;21.85;9.88;;;;;;;9.93;100.00;99529.69;5047830;28;20511;-70
2023/10/26 11:02:12;;;;;;;23.88;11.05;;;;;;;9.96;100.00;99515.94;5048144;28;20419;-69
2023/10/26 11:04:54;;;;;;;21.00;9.13;;;;;;;9.98;100.00;99522.69;5047717;28;20072;-71
2023/10/26 11:07:26;;;;;;;24.98;10.98;;;;;;;10.01;100.00;99516.91;5047577;28;20033;-70
2023/10/26 11:09:56;;;;;;;21.25;9.75;;;;;;;9.99;100.00;99503.00;5047801;28;20032;-68
2023/10/26 11:12:22;;;;;;;27.02;12.52;;;;;;;10.02;100.00;99509.72;5047922;28;20032;-67
2023/10/26 11:14:49;;;;;;;27.08;10.43;;;;;;;10.05;100.00;99501.25;5058089;28;20044;-69
2023/10/26 11:17:20;;;;;;;23.08;11.10;;;;;;;10.12;100.00;99511.84;5060146;28;20084;-70
2023/10/26 11:19:47;;;;;;;27.00;11.20;;;;;;;10.15;100.00;99503.38;5048441;28;20029;-69